createdAt,value
2023-12-26T00:00:46.577Z,0.50
2023-12-26T00:01:50.435Z,0.60
2023-12-26T00:02:52.916Z,0.60
2023-12-26T00:03:55.387Z,0.57
2023-12-26T00:04:57.592Z,0.30
2023-12-26T00:05:59.960Z,0.50
2023-12-26T00:07:02.441Z,0.30
2023-12-26T00:08:05.072Z,0.40
2023-12-26T00:09:07.522Z,0.43
2023-12-26T00:10:09.895Z,0.32
2023-12-26T00:11:11.992Z,0.30
2023-12-26T00:12:14.127Z,0.40
2023-12-26T00:13:16.208Z,0.30
2023-12-26T00:14:18.705Z,0.32
2023-12-26T00:15:21.002Z,0.30
2023-12-26T00:16:23.266Z,0.35
2023-12-26T00:17:25.491Z,0.40
2023-12-26T00:18:27.668Z,0.35
2023-12-26T00:19:30.014Z,0.20
2023-12-26T00:20:32.071Z,0.32
2023-12-26T00:21:34.089Z,0.35
2023-12-26T00:22:36.296Z,0.20
2023-12-26T00:23:38.563Z,0.20
2023-12-26T00:24:40.692Z,0.30
2023-12-26T00:25:45.404Z,0.28
2023-12-26T00:26:47.501Z,0.40
2023-12-26T00:27:49.582Z,0.30
2023-12-26T00:28:51.614Z,0.13
2023-12-26T00:29:53.653Z,0.30
2023-12-26T00:30:55.716Z,0.20
2023-12-26T00:31:57.831Z,0.22
2023-12-26T00:33:00.310Z,0.20
2023-12-26T00:34:02.851Z,0.30
2023-12-26T00:35:05.496Z,0.30
2023-12-26T00:36:14.129Z,0.20
2023-12-26T00:37:16.336Z,0.15
2023-12-26T00:38:19.889Z,0.22
2023-12-26T00:39:21.834Z,0.20
2023-12-26T00:40:23.882Z,0.10
2023-12-26T00:41:26.112Z,0.20
2023-12-26T00:42:28.307Z,0.10
2023-12-26T00:43:30.472Z,0.17
2023-12-26T00:44:32.448Z,0.13
2023-12-26T00:45:34.394Z,0.10
2023-12-26T00:46:36.534Z,0.20
2023-12-26T00:47:38.670Z,0.22
2023-12-26T00:48:41.087Z,0.25
2023-12-26T00:49:43.509Z,0.20
2023-12-26T00:50:45.846Z,0.20
2023-12-26T00:51:48.180Z,0.30
2023-12-26T00:52:50.524Z,0.20
2023-12-26T00:53:53.426Z,0.17
2023-12-26T00:54:55.542Z,0.15
2023-12-26T00:55:58.141Z,0.20
2023-12-26T00:57:00.631Z,0.17
2023-12-26T00:58:03.129Z,0.25
2023-12-26T00:59:05.602Z,0.10
2023-12-26T01:00:09.318Z,0.20
2023-12-26T01:01:11.749Z,0.20
2023-12-26T01:02:14.169Z,0.30
2023-12-26T01:03:23.846Z,0.30
2023-12-26T01:04:27.658Z,0.38
2023-12-26T01:05:29.989Z,0.30
2023-12-26T01:06:32.391Z,0.30
2023-12-26T01:07:34.536Z,0.20
2023-12-26T01:08:36.977Z,0.30
2023-12-26T01:09:39.356Z,0.20
2023-12-26T01:10:41.425Z,0.20
2023-12-26T01:11:43.822Z,0.15
2023-12-26T01:12:46.721Z,0.20
2023-12-26T01:13:48.773Z,0.30
2023-12-26T01:14:50.882Z,0.30
2023-12-26T01:15:53.236Z,0.15
2023-12-26T01:16:55.615Z,0.28
2023-12-26T01:17:57.958Z,0.35
2023-12-26T01:19:00.842Z,0.30
2023-12-26T01:20:04.162Z,0.20
2023-12-26T01:21:07.149Z,0.25
2023-12-26T01:22:09.560Z,0.40
2023-12-26T01:23:11.997Z,0.15
2023-12-26T01:24:14.976Z,0.20
2023-12-26T01:25:17.055Z,0.20
2023-12-26T01:26:19.552Z,0.28
2023-12-26T01:27:22.038Z,0.20
2023-12-26T01:28:24.320Z,0.10
2023-12-26T01:29:26.301Z,0.15
2023-12-26T01:30:28.536Z,0.25
2023-12-26T01:31:30.649Z,0.17
2023-12-26T01:32:33.822Z,0.30
2023-12-26T01:33:36.298Z,0.20
2023-12-26T01:34:38.497Z,0.20
2023-12-26T01:35:41.744Z,0.30
2023-12-26T01:36:44.158Z,0.32
2023-12-26T01:37:46.723Z,0.20
2023-12-26T01:38:48.896Z,0.30
2023-12-26T01:39:51.229Z,0.22
2023-12-26T01:40:53.794Z,0.30
2023-12-26T01:41:56.335Z,0.30
2023-12-26T01:42:58.995Z,0.20
2023-12-26T01:44:01.860Z,0.30
2023-12-26T01:45:05.481Z,0.30
2023-12-26T01:46:09.885Z,0.10
2023-12-26T01:47:13.581Z,0.10
2023-12-26T01:48:16.230Z,0.20
2023-12-26T01:49:19.540Z,0.25
2023-12-26T01:50:25.034Z,0.30
2023-12-26T01:51:29.814Z,0.30
2023-12-26T01:52:32.375Z,0.20
2023-12-26T01:53:35.519Z,0.22
2023-12-26T01:54:39.128Z,0.20
2023-12-26T01:55:42.706Z,0.20
2023-12-26T01:56:47.879Z,0.20
2023-12-26T01:57:52.447Z,0.30
2023-12-26T01:58:55.084Z,0.15
2023-12-26T01:59:57.436Z,0.22
2023-12-26T02:00:59.643Z,0.20
2023-12-26T02:02:02.347Z,0.10
2023-12-26T02:03:05.092Z,0.28
2023-12-26T02:04:07.414Z,0.20
2023-12-26T02:05:11.042Z,0.20
2023-12-26T02:06:16.037Z,0.10
2023-12-26T02:07:18.890Z,0.10
2023-12-26T02:08:21.021Z,0.22
2023-12-26T02:09:23.253Z,0.10
2023-12-26T02:10:25.865Z,0.20
2023-12-26T02:11:27.969Z,0.10
2023-12-26T02:12:30.236Z,0.20
2023-12-26T02:13:36.922Z,0.20
2023-12-26T02:14:39.218Z,0.30
2023-12-26T02:15:41.681Z,0.13
2023-12-26T02:16:49.008Z,0.20
2023-12-26T02:17:52.916Z,0.10
2023-12-26T02:18:56.910Z,0.10
2023-12-26T02:19:59.275Z,0.20
2023-12-26T02:21:01.215Z,0.30
2023-12-26T02:22:04.879Z,0.30
2023-12-26T02:23:06.873Z,0.30
2023-12-26T02:24:09.291Z,0.27
2023-12-26T02:25:11.873Z,0.40
2023-12-26T02:26:15.546Z,0.30
2023-12-26T02:27:36.403Z,0.10
2023-12-26T02:28:40.860Z,0.17
2023-12-26T02:29:50.394Z,0.00
2023-12-26T02:30:53.569Z,0.10
2023-12-26T02:31:57.166Z,0.40
2023-12-26T02:33:02.253Z,0.10
2023-12-26T02:34:07.036Z,0.20
2023-12-26T02:35:11.028Z,0.20
2023-12-26T02:36:13.179Z,0.20
2023-12-26T02:37:15.686Z,0.20
2023-12-26T02:38:17.904Z,0.40
2023-12-26T02:39:20.585Z,0.20
2023-12-26T02:40:22.625Z,0.20
2023-12-26T02:41:24.672Z,0.37
2023-12-26T02:42:30.223Z,0.10
2023-12-26T02:43:34.106Z,0.10
2023-12-26T02:44:36.177Z,0.10
2023-12-26T02:45:38.240Z,0.30
2023-12-26T02:46:40.749Z,0.10
2023-12-26T02:47:43.038Z,0.20
2023-12-26T02:48:45.913Z,0.13
2023-12-26T02:49:48.228Z,0.20
2023-12-26T02:50:50.361Z,0.20
2023-12-26T02:51:52.402Z,0.13
2023-12-26T02:52:54.570Z,0.20
2023-12-26T02:53:56.791Z,0.30
2023-12-26T02:54:58.904Z,0.10
2023-12-26T02:56:01.079Z,0.23
2023-12-26T02:57:05.467Z,0.20
2023-12-26T02:58:07.564Z,0.10
2023-12-26T02:59:09.578Z,0.30
2023-12-26T03:00:17.598Z,0.13
2023-12-26T03:01:19.676Z,0.10
2023-12-26T03:02:21.786Z,0.23
2023-12-26T03:03:23.964Z,0.10
2023-12-26T03:04:28.313Z,0.20
2023-12-26T03:05:30.798Z,0.10
2023-12-26T03:06:32.863Z,0.20
2023-12-26T03:07:34.995Z,0.30
2023-12-26T03:08:37.003Z,0.10
2023-12-26T03:09:39.505Z,0.20
2023-12-26T03:10:41.480Z,0.20
2023-12-26T03:11:43.549Z,0.17
2023-12-26T03:12:45.747Z,0.10
2023-12-26T03:13:48.127Z,0.17
2023-12-26T03:14:50.173Z,0.20
2023-12-26T03:15:52.222Z,0.17
2023-12-26T03:16:54.198Z,0.20
2023-12-26T03:17:56.406Z,0.13
2023-12-26T03:18:59.007Z,0.23
2023-12-26T03:20:01.300Z,0.20
2023-12-26T03:21:03.552Z,0.30
2023-12-26T03:22:07.856Z,0.20
2023-12-26T03:23:10.300Z,0.20
2023-12-26T03:24:12.556Z,0.20
2023-12-26T03:25:14.778Z,0.20
2023-12-26T03:26:16.830Z,0.20
2023-12-26T03:27:18.978Z,0.30
2023-12-26T03:28:21.033Z,0.13
2023-12-26T03:29:22.985Z,0.27
2023-12-26T03:30:25.355Z,0.10
2023-12-26T03:31:27.657Z,0.20
2023-12-26T03:32:29.806Z,0.20
2023-12-26T03:33:32.791Z,0.20
2023-12-26T03:34:35.127Z,0.03
2023-12-26T03:35:37.364Z,0.20
2023-12-26T03:36:50.253Z,0.20
2023-12-26T03:37:52.570Z,0.10
2023-12-26T03:38:54.635Z,0.20
2023-12-26T03:39:56.844Z,0.20
2023-12-26T03:40:59.192Z,0.20
2023-12-26T03:42:01.622Z,0.10
2023-12-26T03:43:04.423Z,0.20
2023-12-26T03:44:07.308Z,0.10
2023-12-26T03:45:10.356Z,0.10
2023-12-26T03:46:12.688Z,0.00
2023-12-26T03:47:15.256Z,0.00
2023-12-26T03:48:17.611Z,0.27
2023-12-26T03:49:19.854Z,0.10
2023-12-26T03:50:22.605Z,0.10
2023-12-26T03:51:24.583Z,0.10
2023-12-26T03:52:28.217Z,0.10
2023-12-26T03:53:30.245Z,0.20
2023-12-26T03:54:32.757Z,0.20
2023-12-26T03:55:36.048Z,0.10
2023-12-26T03:56:38.141Z,0.30
2023-12-26T03:57:42.953Z,0.20
2023-12-26T03:58:44.848Z,0.40
2023-12-26T03:59:47.257Z,0.10
2023-12-26T04:00:49.392Z,0.20
2023-12-26T04:01:51.475Z,0.10
2023-12-26T04:02:53.748Z,0.20
2023-12-26T04:03:55.971Z,0.10
2023-12-26T04:04:58.344Z,0.20
2023-12-26T04:06:00.933Z,0.20
2023-12-26T04:07:03.943Z,0.10
2023-12-26T04:08:06.424Z,0.10
2023-12-26T04:09:10.149Z,0.10
2023-12-26T04:10:12.288Z,0.23
2023-12-26T04:11:14.732Z,0.10
2023-12-26T04:12:17.096Z,0.10
2023-12-26T04:13:19.192Z,0.20
2023-12-26T04:14:21.334Z,0.20
2023-12-26T04:15:23.444Z,0.10
2023-12-26T04:16:25.827Z,0.20
2023-12-26T04:17:27.944Z,0.30
2023-12-26T04:18:30.410Z,0.30
2023-12-26T04:19:32.675Z,0.10
2023-12-26T04:20:34.887Z,0.10
2023-12-26T04:21:37.199Z,0.30
2023-12-26T04:22:39.322Z,0.10
2023-12-26T04:23:41.358Z,0.20
2023-12-26T04:24:43.465Z,0.30
2023-12-26T04:25:45.920Z,0.17
2023-12-26T04:26:48.123Z,0.10
2023-12-26T04:27:50.377Z,0.10
2023-12-26T04:28:52.699Z,0.10
2023-12-26T04:29:55.061Z,0.17
2023-12-26T04:30:58.204Z,0.20
2023-12-26T04:32:00.946Z,0.27
2023-12-26T04:33:03.704Z,0.10
2023-12-26T04:34:06.377Z,0.20
2023-12-26T04:35:09.467Z,0.00
2023-12-26T04:36:12.052Z,0.10
2023-12-26T04:37:14.633Z,0.10
2023-12-26T04:38:16.876Z,0.10
2023-12-26T04:39:19.501Z,0.10
2023-12-26T04:40:24.265Z,0.10
2023-12-26T04:41:26.406Z,0.20
2023-12-26T04:42:28.555Z,0.20
2023-12-26T04:43:30.617Z,0.03
2023-12-26T04:44:32.851Z,0.10
2023-12-26T04:45:37.232Z,0.20
2023-12-26T04:46:40.567Z,0.03
2023-12-26T04:47:42.752Z,0.10
2023-12-26T04:48:45.213Z,0.10
2023-12-26T04:49:47.456Z,0.10
2023-12-26T04:50:49.498Z,0.20
2023-12-26T04:51:51.629Z,0.20
2023-12-26T04:52:54.033Z,0.20
2023-12-26T04:53:56.296Z,0.10
2023-12-26T04:54:58.303Z,0.10
2023-12-26T04:56:00.370Z,0.10
2023-12-26T04:57:02.550Z,0.10
2023-12-26T04:58:05.042Z,0.20
2023-12-26T04:59:07.086Z,0.20
2023-12-26T05:00:13.374Z,0.10
2023-12-26T05:01:17.250Z,0.13
2023-12-26T05:02:19.577Z,0.10
2023-12-26T05:03:21.703Z,0.10
2023-12-26T05:04:23.682Z,0.30
2023-12-26T05:05:25.895Z,0.10
2023-12-26T05:06:28.086Z,0.00
2023-12-26T05:07:30.067Z,0.10
2023-12-26T05:08:32.753Z,0.20
2023-12-26T05:09:35.258Z,0.10
2023-12-26T05:10:37.247Z,0.10
2023-12-26T05:11:39.273Z,0.10
2023-12-26T05:12:41.377Z,0.10
2023-12-26T05:13:43.395Z,0.10
2023-12-26T05:14:45.421Z,0.10
2023-12-26T05:15:48.153Z,0.10
2023-12-26T05:16:52.063Z,0.20
2023-12-26T05:17:54.165Z,0.10
2023-12-26T05:18:56.696Z,0.30
2023-12-26T05:20:04.371Z,0.20
2023-12-26T05:21:23.510Z,0.10
2023-12-26T05:22:25.976Z,0.13
2023-12-26T05:23:28.269Z,0.13
2023-12-26T05:24:38.478Z,0.10
2023-12-26T05:25:47.726Z,0.10
2023-12-26T05:26:49.751Z,0.17
2023-12-26T05:27:51.742Z,0.10
2023-12-26T05:28:53.690Z,0.10
2023-12-26T05:29:55.805Z,0.20
2023-12-26T05:30:57.859Z,0.13
2023-12-26T05:32:00.121Z,0.20
2023-12-26T05:33:02.606Z,0.20
2023-12-26T05:34:07.257Z,0.20
2023-12-26T05:35:09.588Z,0.20
2023-12-26T05:36:11.680Z,0.10
2023-12-26T05:37:13.840Z,0.10
2023-12-26T05:38:15.750Z,0.10
2023-12-26T05:39:17.949Z,0.10
2023-12-26T05:40:20.488Z,0.20
2023-12-26T05:41:22.492Z,0.20
2023-12-26T05:42:25.041Z,0.20
2023-12-26T05:43:27.305Z,0.20
2023-12-26T05:44:29.287Z,0.10
2023-12-26T05:45:33.462Z,0.20
2023-12-26T05:46:35.509Z,0.10
2023-12-26T05:47:37.775Z,0.00
2023-12-26T05:48:44.157Z,0.20
2023-12-26T05:49:46.486Z,0.10
2023-12-26T05:50:48.766Z,0.10
2023-12-26T05:51:50.719Z,0.20
2023-12-26T05:52:52.757Z,0.10
2023-12-26T05:53:55.046Z,0.20
2023-12-26T05:54:57.357Z,0.20
2023-12-26T05:55:59.645Z,0.30
2023-12-26T05:57:01.719Z,0.10
2023-12-26T05:58:03.933Z,0.20
2023-12-26T05:59:05.883Z,0.20
2023-12-26T06:00:10.513Z,0.10
2023-12-26T06:01:12.727Z,0.20
2023-12-26T06:02:14.800Z,0.17
2023-12-26T06:03:17.260Z,0.10
2023-12-26T06:04:19.511Z,0.10
2023-12-26T06:05:21.696Z,0.10
2023-12-26T06:06:23.938Z,0.10
2023-12-26T06:07:26.060Z,0.10
2023-12-26T06:08:28.286Z,0.30
2023-12-26T06:09:30.510Z,0.30
2023-12-26T06:10:32.597Z,0.10
2023-12-26T06:11:34.609Z,0.13
2023-12-26T06:12:37.001Z,0.10
2023-12-26T06:13:39.067Z,0.20
2023-12-26T06:14:41.503Z,0.17
2023-12-26T06:15:43.434Z,0.10
2023-12-26T06:16:45.348Z,0.10
2023-12-26T06:17:47.926Z,0.10
2023-12-26T06:18:50.130Z,0.17
2023-12-26T06:19:52.436Z,0.10
2023-12-26T06:20:54.504Z,0.10
2023-12-26T06:21:56.542Z,0.20
2023-12-26T06:22:58.807Z,0.10
2023-12-26T06:24:01.085Z,0.10
2023-12-26T06:25:03.750Z,0.10
2023-12-26T06:26:08.617Z,0.10
2023-12-26T06:27:11.512Z,0.10
2023-12-26T06:28:13.586Z,0.20
2023-12-26T06:29:15.726Z,0.17
2023-12-26T06:30:18.496Z,0.10
2023-12-26T06:31:21.044Z,0.00
2023-12-26T06:32:23.239Z,0.20
2023-12-26T06:33:25.796Z,0.10
2023-12-26T06:34:28.091Z,0.20
2023-12-26T06:35:30.161Z,0.23
2023-12-26T06:36:33.612Z,0.20
2023-12-26T06:37:35.698Z,0.13
2023-12-26T06:38:38.036Z,0.10
2023-12-26T06:39:41.583Z,0.20
2023-12-26T06:40:44.240Z,0.20
2023-12-26T06:41:46.333Z,0.20
2023-12-26T06:42:48.524Z,0.20
2023-12-26T06:43:50.699Z,0.10
2023-12-26T06:44:53.049Z,0.27
2023-12-26T06:45:55.168Z,0.10
2023-12-26T06:46:57.328Z,0.20
2023-12-26T06:47:59.400Z,0.10
2023-12-26T06:49:01.458Z,0.17
2023-12-26T06:50:04.187Z,0.20
2023-12-26T06:51:06.914Z,0.10
2023-12-26T06:52:08.952Z,0.27
2023-12-26T06:53:11.245Z,0.10
2023-12-26T06:54:13.846Z,0.27
2023-12-26T06:55:17.400Z,0.20
2023-12-26T06:56:20.922Z,0.20
2023-12-26T06:57:23.025Z,0.10
2023-12-26T06:58:25.629Z,0.20
2023-12-26T06:59:28.165Z,0.20
2023-12-26T07:00:30.363Z,0.20
2023-12-26T07:01:34.906Z,0.20
2023-12-26T07:02:37.126Z,0.10
2023-12-26T07:03:39.206Z,0.10
2023-12-26T07:04:45.761Z,0.10
2023-12-26T07:05:47.831Z,0.20
2023-12-26T07:06:51.435Z,0.20
2023-12-26T07:07:53.471Z,0.20
2023-12-26T07:08:55.868Z,0.13
2023-12-26T07:09:57.863Z,0.30
2023-12-26T07:11:00.895Z,0.20
2023-12-26T07:12:03.598Z,0.10
2023-12-26T07:13:05.529Z,0.20
2023-12-26T07:14:07.618Z,0.20
2023-12-26T07:15:10.746Z,0.20
2023-12-26T07:16:12.785Z,0.20
2023-12-26T07:17:14.774Z,0.20
2023-12-26T07:18:17.014Z,0.10
2023-12-26T07:19:19.179Z,0.20
2023-12-26T07:20:21.233Z,0.30
2023-12-26T07:21:23.475Z,0.20
2023-12-26T07:22:26.141Z,0.10
2023-12-26T07:23:28.451Z,0.23
2023-12-26T07:24:30.715Z,0.10
2023-12-26T07:25:32.819Z,0.10
2023-12-26T07:26:34.866Z,0.30
2023-12-26T07:27:37.147Z,0.27
2023-12-26T07:28:39.282Z,0.10
2023-12-26T07:29:41.393Z,0.20
2023-12-26T07:30:43.761Z,0.23
2023-12-26T07:31:45.777Z,0.20
2023-12-26T07:32:49.065Z,0.17
2023-12-26T07:33:53.318Z,0.30
2023-12-26T07:34:56.901Z,0.20
2023-12-26T07:36:01.418Z,0.20
2023-12-26T07:37:03.507Z,0.20
2023-12-26T07:38:06.344Z,0.20
2023-12-26T07:39:08.546Z,0.30
2023-12-26T07:40:11.724Z,0.20
2023-12-26T07:41:13.676Z,0.10
2023-12-26T07:42:16.243Z,0.23
2023-12-26T07:43:18.562Z,0.20
2023-12-26T07:44:20.456Z,0.20
2023-12-26T07:45:24.739Z,0.10
2023-12-26T07:46:27.047Z,0.20
2023-12-26T07:47:29.060Z,0.20
2023-12-26T07:48:31.182Z,0.27
2023-12-26T07:49:33.831Z,0.37
2023-12-26T07:50:35.951Z,0.37
2023-12-26T07:51:38.713Z,0.17
2023-12-26T07:52:41.128Z,0.23
2023-12-26T07:53:43.376Z,0.20
2023-12-26T07:54:45.448Z,0.10
2023-12-26T07:55:47.718Z,0.30
2023-12-26T07:56:49.968Z,0.20
2023-12-26T07:57:52.633Z,0.40
2023-12-26T07:58:56.175Z,0.60
2023-12-26T07:59:58.370Z,0.87
2023-12-26T08:01:00.492Z,0.67
2023-12-26T08:02:02.978Z,0.97
2023-12-26T08:03:05.354Z,1.10
2023-12-26T08:04:08.994Z,1.00
2023-12-26T08:05:11.411Z,0.87
2023-12-26T08:06:13.623Z,0.83
2023-12-26T08:07:15.781Z,0.77
2023-12-26T08:08:17.738Z,0.97
2023-12-26T08:09:21.906Z,0.87
2023-12-26T08:10:26.983Z,0.70
2023-12-26T08:11:29.174Z,0.70
2023-12-26T08:12:31.109Z,0.67
2023-12-26T08:13:33.136Z,0.90
2023-12-26T08:14:35.315Z,0.57
2023-12-26T08:15:37.686Z,0.67
2023-12-26T08:16:39.609Z,0.80
2023-12-26T08:17:41.946Z,0.60
2023-12-26T08:18:44.459Z,0.60
2023-12-26T08:19:46.612Z,0.90
2023-12-26T08:20:48.656Z,0.70
2023-12-26T08:21:52.498Z,0.67
2023-12-26T08:22:54.774Z,0.60
2023-12-26T08:23:57.197Z,0.67
2023-12-26T08:24:59.320Z,0.80
2023-12-26T08:26:01.307Z,0.80
2023-12-26T08:27:03.976Z,0.70
2023-12-26T08:28:07.588Z,0.60
2023-12-26T08:29:09.606Z,0.43
2023-12-26T08:30:12.341Z,0.57
2023-12-26T08:31:16.324Z,0.50
2023-12-26T08:32:18.417Z,0.70
2023-12-26T08:33:20.694Z,0.80
2023-12-26T08:34:23.646Z,0.50
2023-12-26T08:35:27.175Z,0.60
2023-12-26T08:36:29.436Z,0.57
2023-12-26T08:37:31.683Z,0.60
2023-12-26T08:38:33.894Z,0.60
2023-12-26T08:39:36.120Z,0.50
2023-12-26T08:40:38.493Z,0.60
2023-12-26T08:41:40.508Z,0.70
2023-12-26T08:42:42.709Z,0.50
2023-12-26T08:43:45.650Z,0.90
2023-12-26T08:44:47.754Z,0.60
2023-12-26T08:45:50.043Z,0.73
2023-12-26T08:46:52.882Z,0.53
2023-12-26T08:47:55.448Z,0.50
2023-12-26T08:48:57.977Z,0.50
2023-12-26T08:50:00.798Z,0.60
2023-12-26T08:51:03.147Z,0.50
2023-12-26T08:52:06.038Z,0.40
2023-12-26T08:53:08.426Z,0.50
2023-12-26T08:54:12.857Z,0.60
2023-12-26T08:55:17.392Z,0.90
2023-12-26T08:56:19.985Z,0.50
2023-12-26T08:57:22.464Z,0.47
2023-12-26T08:58:28.324Z,0.70
2023-12-26T08:59:30.263Z,0.60
2023-12-26T09:00:32.590Z,0.63
2023-12-26T09:01:37.317Z,0.40
2023-12-26T09:02:47.636Z,0.53
2023-12-26T09:03:54.723Z,0.47
2023-12-26T09:05:00.852Z,0.30
2023-12-26T09:06:03.356Z,1.03
2023-12-26T09:07:05.947Z,0.63
2023-12-26T09:08:08.332Z,0.83
2023-12-26T09:09:11.617Z,0.50
2023-12-26T09:10:13.697Z,0.70
2023-12-26T09:11:15.795Z,0.70
2023-12-26T09:12:17.940Z,0.53
2023-12-26T09:13:22.789Z,0.60
2023-12-26T09:14:25.008Z,0.60
2023-12-26T09:15:27.156Z,0.60
2023-12-26T09:16:29.286Z,0.50
2023-12-26T09:17:31.431Z,0.60
2023-12-26T09:18:33.814Z,0.63
2023-12-26T09:19:36.220Z,0.60
2023-12-26T09:20:38.538Z,0.50
2023-12-26T09:21:40.673Z,0.57
2023-12-26T09:22:44.818Z,0.60
2023-12-26T09:23:47.151Z,0.30
2023-12-26T09:24:49.522Z,0.57
2023-12-26T09:25:51.829Z,0.60
2023-12-26T09:26:54.131Z,0.43
2023-12-26T09:27:56.787Z,0.60
2023-12-26T09:28:58.825Z,0.30
2023-12-26T09:30:01.114Z,0.60
2023-12-26T09:31:03.580Z,0.90
2023-12-26T09:32:06.341Z,0.40
2023-12-26T09:33:08.624Z,0.70
2023-12-26T09:34:11.798Z,0.50
2023-12-26T09:35:14.190Z,0.70
2023-12-26T09:36:17.455Z,0.50
2023-12-26T09:37:19.984Z,0.60
2023-12-26T09:38:22.203Z,0.70
2023-12-26T09:39:24.774Z,0.60
2023-12-26T09:40:27.628Z,0.47
2023-12-26T09:41:29.773Z,0.70
2023-12-26T09:42:32.021Z,0.60
2023-12-26T09:43:34.579Z,0.40
2023-12-26T09:44:37.519Z,0.50
2023-12-26T09:45:39.628Z,1.27
2023-12-26T09:46:41.828Z,0.80
2023-12-26T09:47:45.180Z,0.90
2023-12-26T09:48:47.847Z,0.73
2023-12-26T09:49:51.829Z,0.67
2023-12-26T09:50:57.617Z,0.73
2023-12-26T09:52:04.024Z,1.07
2023-12-26T09:53:10.032Z,0.40
2023-12-26T09:54:14.598Z,0.50
2023-12-26T09:55:18.518Z,0.80
2023-12-26T09:56:22.571Z,0.50
2023-12-26T09:57:24.879Z,0.70
2023-12-26T09:58:27.878Z,0.53
2023-12-26T09:59:31.038Z,0.50
2023-12-26T10:00:34.674Z,0.40
2023-12-26T10:01:36.755Z,0.60
2023-12-26T10:02:39.234Z,0.83
2023-12-26T10:03:43.378Z,1.17
2023-12-26T10:04:46.942Z,0.83
2023-12-26T10:05:51.068Z,0.73
2023-12-26T10:06:54.007Z,0.90
2023-12-26T10:07:56.269Z,0.80
2023-12-26T10:08:58.944Z,0.40
2023-12-26T10:10:01.332Z,1.00
2023-12-26T10:11:03.884Z,0.70
2023-12-26T10:12:09.447Z,0.83
2023-12-26T10:13:12.130Z,0.53
2023-12-26T10:14:27.953Z,0.77
2023-12-26T10:15:30.258Z,0.80
2023-12-26T10:16:35.900Z,0.70
2023-12-26T10:17:38.547Z,0.77
2023-12-26T10:18:40.961Z,0.80
2023-12-26T10:19:43.474Z,0.80
2023-12-26T10:20:45.991Z,0.53
2023-12-26T10:21:48.347Z,0.73
2023-12-26T10:22:50.796Z,0.90
2023-12-26T10:23:53.957Z,0.60
2023-12-26T10:24:57.014Z,0.87
2023-12-26T10:26:00.220Z,0.43
2023-12-26T10:27:02.655Z,0.63
2023-12-26T10:28:05.652Z,0.50
2023-12-26T10:29:13.858Z,0.50
2023-12-26T10:30:20.319Z,0.70
2023-12-26T10:31:22.688Z,0.63
2023-12-26T10:32:26.841Z,0.50
2023-12-26T10:33:29.309Z,0.57
2023-12-26T10:34:32.155Z,0.80
2023-12-26T10:35:35.420Z,0.50
2023-12-26T10:36:46.150Z,0.43
2023-12-26T10:37:48.165Z,0.80
2023-12-26T10:38:50.241Z,0.50
2023-12-26T10:39:53.132Z,0.80
2023-12-26T10:41:01.659Z,0.70
2023-12-26T10:42:05.202Z,0.50
2023-12-26T10:43:07.894Z,0.50
2023-12-26T10:44:11.031Z,0.50
2023-12-26T10:45:15.318Z,0.70
2023-12-26T10:46:20.511Z,0.70
2023-12-26T10:47:23.368Z,0.60
2023-12-26T10:48:35.077Z,0.53
2023-12-26T10:49:41.838Z,0.60
2023-12-26T10:50:44.260Z,0.40
2023-12-26T10:51:47.010Z,0.60
2023-12-26T10:53:16.378Z,0.50
2023-12-26T10:54:26.180Z,0.80
2023-12-26T10:55:29.216Z,0.50
2023-12-26T10:56:34.007Z,0.60
2023-12-26T10:57:37.454Z,0.80
2023-12-26T10:58:41.899Z,0.57
2023-12-26T11:00:49.672Z,0.50
2023-12-26T11:03:06.797Z,0.40
2023-12-26T11:05:24.172Z,0.50
2023-12-26T11:07:41.684Z,0.50
2023-12-26T11:09:58.922Z,0.47
2023-12-26T11:12:16.239Z,0.50
2023-12-26T11:14:33.653Z,0.40
2023-12-26T11:16:51.103Z,0.40
2023-12-26T11:19:08.533Z,0.40
2023-12-26T11:21:26.391Z,0.63
2023-12-26T11:23:43.624Z,0.50
2023-12-26T11:26:00.666Z,0.50
2023-12-26T11:28:18.267Z,0.67
2023-12-26T11:30:35.815Z,0.60
2023-12-26T11:32:53.370Z,0.60
2023-12-26T11:35:10.522Z,0.60
2023-12-26T11:37:27.785Z,0.43
2023-12-26T11:39:45.146Z,0.50
2023-12-26T11:42:02.361Z,0.80
2023-12-26T11:44:19.687Z,0.80
2023-12-26T11:46:37.501Z,0.33
2023-12-26T11:48:54.588Z,0.40
2023-12-26T11:51:12.104Z,0.60
2023-12-26T11:53:29.051Z,0.50
2023-12-26T11:55:46.291Z,0.37
2023-12-26T11:58:03.541Z,0.40
2023-12-26T12:00:20.846Z,0.40
2023-12-26T12:02:38.334Z,0.50
2023-12-26T12:04:55.815Z,0.80
2023-12-26T12:07:13.425Z,0.53
2023-12-26T12:09:30.666Z,0.43
2023-12-26T12:11:48.134Z,0.70
2023-12-26T12:14:05.551Z,0.40
2023-12-26T12:16:23.325Z,0.40
2023-12-26T12:18:41.002Z,0.30
2023-12-26T12:20:58.107Z,0.60
2023-12-26T12:23:15.230Z,0.53
2023-12-26T12:25:32.621Z,0.60
2023-12-26T12:27:50.456Z,0.50
2023-12-26T12:30:07.696Z,0.53
2023-12-26T12:32:24.932Z,0.60
2023-12-26T12:34:42.232Z,0.70
2023-12-26T12:36:59.508Z,0.67
2023-12-26T12:39:16.305Z,0.60
2023-12-26T12:41:33.897Z,0.70
2023-12-26T12:43:50.889Z,0.60
2023-12-26T12:46:09.149Z,0.50
2023-12-26T12:48:26.512Z,0.47
2023-12-26T12:50:44.319Z,0.57
2023-12-26T12:53:01.559Z,0.53
2023-12-26T12:55:19.490Z,0.30
2023-12-26T12:57:36.900Z,0.47
2023-12-26T12:59:54.498Z,0.80
2023-12-26T13:02:11.506Z,0.40
2023-12-26T13:04:28.518Z,0.40
2023-12-26T13:06:45.576Z,0.40
2023-12-26T13:09:03.051Z,0.50
2023-12-26T13:11:20.395Z,0.53
2023-12-26T13:13:37.668Z,0.50
2023-12-26T13:15:54.705Z,0.57
2023-12-26T13:18:12.098Z,0.50
2023-12-26T13:20:29.322Z,0.40
2023-12-26T13:22:46.569Z,0.60
2023-12-26T13:25:04.110Z,0.53
2023-12-26T13:27:21.445Z,0.73
2023-12-26T13:29:38.978Z,0.40
2023-12-26T13:31:58.493Z,0.63
2023-12-26T13:35:39.921Z,2.30
2023-12-26T13:37:59.808Z,3.20
2023-12-26T13:40:17.930Z,3.63
2023-12-26T13:42:35.254Z,2.57
2023-12-26T13:44:52.645Z,2.50
2023-12-26T13:47:09.784Z,1.60
2023-12-26T13:51:16.351Z,1.40
2023-12-26T13:52:18.384Z,1.30
2023-12-26T13:53:20.616Z,1.77
2023-12-26T13:54:22.555Z,1.43
2023-12-26T13:55:24.577Z,1.33
2023-12-26T13:56:28.159Z,1.57
2023-12-26T13:57:30.254Z,1.10
2023-12-26T13:58:32.595Z,0.90
2023-12-26T13:59:35.068Z,1.10
2023-12-26T14:00:37.133Z,0.80
2023-12-26T14:01:39.395Z,1.00
2023-12-26T14:02:41.599Z,1.07
2023-12-26T14:03:50.966Z,0.80
2023-12-26T14:04:53.159Z,0.83
2023-12-26T14:05:55.399Z,1.27
2023-12-26T14:06:57.593Z,1.03
2023-12-26T14:07:59.798Z,0.70
2023-12-26T14:09:02.053Z,0.57
2023-12-26T14:10:04.988Z,1.17
2023-12-26T14:11:06.944Z,0.77
2023-12-26T14:12:09.221Z,0.77
2023-12-26T14:13:11.185Z,0.70
2023-12-26T14:14:13.100Z,1.00
2023-12-26T14:15:15.064Z,0.87
2023-12-26T14:16:22.269Z,0.93
2023-12-26T14:17:24.317Z,1.00
2023-12-26T14:18:26.481Z,0.77
2023-12-26T14:19:28.687Z,0.63
2023-12-26T14:20:30.826Z,0.83
2023-12-26T14:21:33.060Z,0.87
2023-12-26T14:22:37.846Z,1.00
2023-12-26T14:23:41.098Z,0.93
2023-12-26T14:24:43.003Z,0.70
2023-12-26T14:25:45.254Z,0.70
2023-12-26T14:26:47.458Z,0.83
2023-12-26T14:27:49.664Z,1.00
2023-12-26T14:28:51.775Z,0.70
2023-12-26T14:29:54.130Z,0.70
2023-12-26T14:30:57.453Z,0.80
2023-12-26T14:31:59.593Z,0.70
2023-12-26T14:33:02.062Z,0.80
2023-12-26T14:34:04.675Z,0.60
2023-12-26T14:35:06.747Z,0.63
2023-12-26T14:36:09.340Z,1.20
2023-12-26T14:37:12.766Z,0.67
2023-12-26T14:38:14.899Z,0.70
2023-12-26T14:39:17.200Z,0.80
2023-12-26T14:40:19.188Z,0.80
2023-12-26T14:41:21.060Z,0.87
2023-12-26T14:42:22.912Z,0.50
2023-12-26T14:43:25.387Z,0.83
2023-12-26T14:44:27.800Z,0.80
2023-12-26T14:45:30.066Z,0.80
2023-12-26T14:46:32.019Z,0.90
2023-12-26T14:47:34.151Z,0.67
2023-12-26T14:48:36.436Z,0.60
2023-12-26T14:49:38.658Z,0.60
2023-12-26T14:50:40.927Z,0.73
2023-12-26T14:51:42.912Z,0.50
2023-12-26T14:52:44.881Z,0.80
2023-12-26T14:53:47.044Z,0.50
2023-12-26T14:54:49.116Z,0.63
2023-12-26T14:55:51.446Z,0.80
2023-12-26T14:56:53.422Z,0.60
2023-12-26T14:57:55.393Z,0.70
2023-12-26T14:58:57.409Z,0.90
2023-12-26T14:59:59.331Z,0.67
2023-12-26T15:01:03.879Z,0.70
2023-12-26T15:02:07.831Z,0.60
2023-12-26T15:03:11.445Z,1.00
2023-12-26T15:04:14.985Z,0.80
2023-12-26T15:05:17.214Z,0.57
2023-12-26T15:06:19.931Z,0.60
2023-12-26T15:07:21.931Z,0.77
2023-12-26T15:08:23.890Z,0.50
2023-12-26T15:09:26.708Z,0.67
2023-12-26T15:10:28.838Z,0.60
2023-12-26T15:11:31.483Z,0.60
2023-12-26T15:12:33.655Z,0.53
2023-12-26T15:13:42.915Z,0.50
2023-12-26T15:14:50.000Z,0.90
2023-12-26T15:15:52.416Z,0.60
2023-12-26T15:16:54.459Z,0.70
2023-12-26T15:17:57.523Z,0.80
2023-12-26T15:19:00.181Z,0.80
2023-12-26T15:20:02.376Z,0.73
2023-12-26T15:21:04.818Z,0.60
2023-12-26T15:22:07.040Z,0.60
2023-12-26T15:23:09.284Z,0.53
2023-12-26T15:24:12.857Z,0.57
2023-12-26T15:25:16.071Z,0.60
2023-12-26T15:26:18.240Z,0.50
2023-12-26T15:27:21.693Z,0.80
2023-12-26T15:28:23.732Z,0.60
2023-12-26T15:29:25.704Z,0.90
2023-12-26T15:30:27.865Z,0.70
2023-12-26T15:31:30.080Z,0.90
2023-12-26T15:32:35.019Z,0.50